createdAt,value
2022-12-07T00:01:28.936Z,10.70
2022-12-07T00:04:04.982Z,73.47
2022-12-07T00:06:36.867Z,3.58
2022-12-07T00:09:06.309Z,4.93
2022-12-07T00:11:34.246Z,3.63
2022-12-07T00:14:03.520Z,3.85
2022-12-07T00:16:32.492Z,8.98
2022-12-07T00:19:00.474Z,6.78
2022-12-07T00:21:33.547Z,2.88
2022-12-07T00:24:02.132Z,1.92
2022-12-07T00:26:34.048Z,3.65
2022-12-07T00:29:03.307Z,4.10
2022-12-07T00:31:39.742Z,2.70
2022-12-07T00:34:08.187Z,11.48
2022-12-07T00:36:39.422Z,27.25
2022-12-07T00:39:07.237Z,48.25
2022-12-07T00:41:35.423Z,3.55
2022-12-07T00:44:03.124Z,1.58
2022-12-07T00:46:31.634Z,4.35
2022-12-07T00:48:59.827Z,3.80
2022-12-07T00:51:27.892Z,21.70
2022-12-07T00:53:55.740Z,2.75
2022-12-07T00:56:24.777Z,2.80
2022-12-07T00:58:56.831Z,3.30
2022-12-07T01:01:25.214Z,45.85
2022-12-07T01:03:53.129Z,3.92
2022-12-07T01:06:21.863Z,59.58
2022-12-07T01:08:49.714Z,3.58
2022-12-07T01:11:19.545Z,37.78
2022-12-07T01:13:47.465Z,52.08
2022-12-07T01:16:17.575Z,36.90
2022-12-07T01:18:49.693Z,14.32
2022-12-07T01:21:19.272Z,32.63
2022-12-07T01:23:48.214Z,6.95
2022-12-07T01:26:17.545Z,6.25
2022-12-07T01:28:45.459Z,20.17
2022-12-07T01:31:16.084Z,35.05
2022-12-07T01:33:46.082Z,5.18
2022-12-07T01:36:22.696Z,32.90
2022-12-07T01:38:52.751Z,19.65
2022-12-07T01:41:20.920Z,11.50
2022-12-07T01:44:07.647Z,4.20
2022-12-07T01:46:35.574Z,4.00
2022-12-07T01:49:03.935Z,61.75
2022-12-07T01:51:31.736Z,49.40
2022-12-07T01:53:59.755Z,4.20
2022-12-07T01:56:29.724Z,5.20
2022-12-07T01:58:59.974Z,3.17
2022-12-07T02:01:27.849Z,3.22
2022-12-07T02:03:55.797Z,3.17
2022-12-07T02:06:27.306Z,5.20
2022-12-07T02:08:55.773Z,2.80
2022-12-07T02:11:24.093Z,4.45
2022-12-07T02:13:51.999Z,4.43
2022-12-07T02:16:19.805Z,2.90
2022-12-07T02:18:47.485Z,2.28
2022-12-07T02:21:45.836Z,13.00
2022-12-07T02:24:32.501Z,3.97
2022-12-07T02:27:13.151Z,3.72
2022-12-07T02:30:02.179Z,5.72
2022-12-07T02:32:38.592Z,3.17
2022-12-07T02:35:20.907Z,3.38
2022-12-07T02:38:00.864Z,3.63
2022-12-07T02:40:31.583Z,21.42
2022-12-07T02:43:09.263Z,4.00
2022-12-07T02:45:39.152Z,3.97
2022-12-07T02:48:07.719Z,3.50
2022-12-07T02:50:35.632Z,48.00
2022-12-07T02:53:03.432Z,24.08
2022-12-07T02:55:35.137Z,5.45
2022-12-07T02:58:14.028Z,8.95
2022-12-07T03:01:12.889Z,3.53
2022-12-07T03:03:46.163Z,4.32
2022-12-07T03:06:21.464Z,14.15
2022-12-07T03:08:49.209Z,36.75
2022-12-07T03:11:22.098Z,3.28
2022-12-07T03:14:16.842Z,4.72
2022-12-07T03:16:52.384Z,37.15
2022-12-07T03:19:23.371Z,3.65
2022-12-07T03:22:14.682Z,6.32
2022-12-07T03:24:50.219Z,3.72
2022-12-07T03:27:20.479Z,2.75
2022-12-07T03:32:18.923Z,4.45
2022-12-07T03:34:56.858Z,2.45
2022-12-07T03:37:36.345Z,3.08
2022-12-07T03:40:08.658Z,46.83
2022-12-07T03:42:36.694Z,2.42
2022-12-07T03:45:05.887Z,2.83
2022-12-07T03:47:49.106Z,2.85
2022-12-07T03:50:21.684Z,3.78
2022-12-07T03:52:57.851Z,3.50
2022-12-07T03:55:39.386Z,4.13
2022-12-07T03:58:12.770Z,3.13
2022-12-07T04:00:40.661Z,2.70
2022-12-07T04:03:08.423Z,9.75
2022-12-07T04:05:36.553Z,4.18
2022-12-07T04:08:04.479Z,2.72
2022-12-07T04:10:33.313Z,4.43
2022-12-07T04:13:01.417Z,3.40
2022-12-07T04:15:29.321Z,4.35
2022-12-07T04:17:57.188Z,2.22
2022-12-07T04:20:25.284Z,5.75
2022-12-07T04:22:53.306Z,5.18
2022-12-07T04:25:21.682Z,5.47
2022-12-07T04:27:49.421Z,3.58
2022-12-07T04:30:17.465Z,4.35
2022-12-07T04:32:45.200Z,2.65
2022-12-07T04:35:12.890Z,4.22
2022-12-07T04:37:40.882Z,7.72
2022-12-07T04:40:12.131Z,10.48
2022-12-07T04:42:40.324Z,2.67
2022-12-07T04:45:08.584Z,3.33
2022-12-07T04:47:37.000Z,2.17
2022-12-07T04:50:05.408Z,4.07
2022-12-07T04:52:33.577Z,3.38
2022-12-07T04:55:01.386Z,2.88
2022-12-07T04:57:29.193Z,2.63
2022-12-07T04:59:57.016Z,3.17
2022-12-07T05:02:24.875Z,2.90
2022-12-07T05:04:52.762Z,5.38
2022-12-07T05:07:20.555Z,4.03
2022-12-07T05:09:48.394Z,4.57
2022-12-07T05:12:16.207Z,5.88
2022-12-07T05:14:44.136Z,5.00
2022-12-07T05:17:12.654Z,4.28
2022-12-07T05:19:40.441Z,5.80
2022-12-07T05:22:08.186Z,10.68
2022-12-07T05:24:36.615Z,2.03
2022-12-07T05:27:04.637Z,5.18
2022-12-07T05:29:32.650Z,4.50
2022-12-07T05:32:00.671Z,3.70
2022-12-07T05:34:30.883Z,21.40
2022-12-07T05:36:58.959Z,10.30
2022-12-07T05:39:26.731Z,4.22
2022-12-07T05:42:13.005Z,4.43
2022-12-07T05:44:44.532Z,4.25
2022-12-07T05:47:13.384Z,20.65
2022-12-07T05:49:42.007Z,8.30
2022-12-07T05:52:10.270Z,13.23
2022-12-07T05:54:38.179Z,7.53
2022-12-07T05:57:06.001Z,8.43
2022-12-07T05:59:34.074Z,7.43
2022-12-07T06:02:06.816Z,32.75
2022-12-07T06:04:40.109Z,39.70
2022-12-07T06:07:08.383Z,63.10
2022-12-07T06:09:36.643Z,57.28
2022-12-07T06:12:23.560Z,10.25
2022-12-07T06:14:51.466Z,19.60
2022-12-07T06:17:19.349Z,91.97
2022-12-07T06:19:47.044Z,12.57
2022-12-07T06:22:17.216Z,80.85
2022-12-07T06:24:45.956Z,89.57
2022-12-07T06:27:13.913Z,18.13
2022-12-07T06:29:41.729Z,17.83
2022-12-07T06:32:09.449Z,55.15
2022-12-07T06:34:37.569Z,8.07
2022-12-07T06:37:05.436Z,13.50
2022-12-07T06:39:33.302Z,18.05
2022-12-07T06:42:04.297Z,10.73
2022-12-07T06:44:31.964Z,42.20
2022-12-07T06:47:25.100Z,31.73
2022-12-07T06:49:47.791Z,11.68
2022-12-07T06:52:15.574Z,38.65
2022-12-07T06:54:43.535Z,59.85
2022-12-07T06:57:11.408Z,40.28
2022-12-07T06:59:39.224Z,18.05
2022-12-07T07:02:07.102Z,12.38
2022-12-07T07:04:34.918Z,17.73
2022-12-07T07:07:03.367Z,31.15
2022-12-07T07:09:31.714Z,35.90
2022-12-07T07:11:59.760Z,11.65
2022-12-07T07:14:27.560Z,21.20
2022-12-07T07:16:55.408Z,26.48
2022-12-07T07:19:23.811Z,24.67
2022-12-07T07:21:52.044Z,31.30
2022-12-07T07:24:20.480Z,28.83
2022-12-07T07:26:48.462Z,19.13
2022-12-07T07:29:16.271Z,23.27
2022-12-07T07:31:44.196Z,15.00
2022-12-07T07:34:14.616Z,25.95
2022-12-07T07:36:42.493Z,22.52
2022-12-07T07:39:10.548Z,40.58
2022-12-07T07:41:39.130Z,41.92
2022-12-07T07:44:06.968Z,30.42
2022-12-07T07:46:35.458Z,39.25
2022-12-07T07:49:03.257Z,25.05
2022-12-07T07:51:31.261Z,30.55
2022-12-07T07:53:59.176Z,51.42
2022-12-07T07:56:27.287Z,44.90
2022-12-07T07:58:55.157Z,56.67
2022-12-07T08:01:23.180Z,63.72
2022-12-07T08:03:51.280Z,53.92
2022-12-07T08:06:19.189Z,23.83
2022-12-07T08:08:47.509Z,27.35
2022-12-07T08:11:15.598Z,39.40
2022-12-07T08:13:43.900Z,75.22
2022-12-07T08:16:12.817Z,43.20
2022-12-07T08:18:41.829Z,38.03
2022-12-07T08:21:11.599Z,45.72
2022-12-07T08:23:40.268Z,25.52
2022-12-07T08:26:11.309Z,39.30
2022-12-07T08:28:39.176Z,46.03
2022-12-07T08:31:17.085Z,29.33
2022-12-07T08:33:44.873Z,39.72
2022-12-07T08:36:13.054Z,61.25
2022-12-07T08:38:44.931Z,40.03
2022-12-07T08:41:19.486Z,41.25
2022-12-07T08:43:47.337Z,42.55
2022-12-07T08:46:31.349Z,31.67
2022-12-07T08:49:00.896Z,69.93
2022-12-07T08:51:29.115Z,61.65
2022-12-07T08:53:59.388Z,47.03
2022-12-07T08:58:59.930Z,88.60
2022-12-07T09:01:40.834Z,72.45
2022-12-07T09:04:08.827Z,66.80
2022-12-07T09:06:36.635Z,63.35
2022-12-07T09:09:05.027Z,30.55
2022-12-07T09:11:33.016Z,33.78
2022-12-07T09:14:02.746Z,42.30
2022-12-07T09:16:30.739Z,34.88
2022-12-07T09:19:06.676Z,55.80
2022-12-07T09:21:35.150Z,25.10
2022-12-07T09:24:05.975Z,49.85
2022-12-07T09:26:33.908Z,53.30
2022-12-07T09:29:01.920Z,49.28
2022-12-07T09:31:32.217Z,121.88
2022-12-07T09:34:01.313Z,53.33
2022-12-07T09:36:30.212Z,34.75
2022-12-07T09:38:59.308Z,76.03
2022-12-07T09:41:31.178Z,99.57
2022-12-07T09:44:13.868Z,43.92
2022-12-07T09:49:20.596Z,33.50
2022-12-07T09:51:51.463Z,47.05
2022-12-07T09:54:20.421Z,37.72
2022-12-07T09:56:48.811Z,55.70
2022-12-07T09:59:20.764Z,35.63
2022-12-07T10:01:50.683Z,128.63
2022-12-07T10:04:25.941Z,179.48
2022-12-07T10:06:55.121Z,87.45
2022-12-07T10:09:26.065Z,48.97
2022-12-07T10:12:01.269Z,62.50
2022-12-07T10:17:42.011Z,31.42
2022-12-07T10:20:24.254Z,27.05
2022-12-07T10:23:01.746Z,32.03
2022-12-07T10:25:38.457Z,23.08
2022-12-07T10:28:09.776Z,33.38
2022-12-07T10:30:49.946Z,43.15
2022-12-07T10:33:39.162Z,40.20
2022-12-07T10:36:29.154Z,28.77
2022-12-07T10:39:13.640Z,95.40
2022-12-07T10:42:05.501Z,76.03
2022-12-07T10:44:34.533Z,41.17
2022-12-07T10:47:08.583Z,55.30
2022-12-07T10:49:47.191Z,44.72
2022-12-07T10:52:36.355Z,48.22
2022-12-07T10:55:23.013Z,48.70
2022-12-07T10:58:09.360Z,88.80
2022-12-07T11:00:44.254Z,58.95
2022-12-07T11:03:59.535Z,60.38
2022-12-07T11:06:36.148Z,54.58
2022-12-07T11:09:44.995Z,25.63
2022-12-07T11:14:51.851Z,26.75
2022-12-07T11:17:40.049Z,44.10
2022-12-07T11:20:31.479Z,38.80
2022-12-07T11:23:05.936Z,28.42
2022-12-07T11:25:41.888Z,44.20
2022-12-07T11:28:09.886Z,29.85
2022-12-07T11:30:43.917Z,28.83
2022-12-07T11:33:36.198Z,44.22
2022-12-07T11:36:36.756Z,33.70
2022-12-07T11:39:26.771Z,18.38
2022-12-07T11:42:06.102Z,23.77
2022-12-07T11:45:22.882Z,35.88
2022-12-07T11:47:53.556Z,34.17
2022-12-07T11:50:21.917Z,33.92
2022-12-07T11:53:08.364Z,30.90
2022-12-07T11:55:56.066Z,43.20
2022-12-07T11:58:57.269Z,40.78
2022-12-07T12:05:02.580Z,38.70
2022-12-07T12:11:27.222Z,37.53
2022-12-07T12:17:25.020Z,31.58
2022-12-07T12:20:04.139Z,48.95
2022-12-07T12:22:45.988Z,38.50
2022-12-07T12:25:37.228Z,35.15
2022-12-07T12:28:05.281Z,39.22
2022-12-07T12:30:41.063Z,30.52
2022-12-07T12:33:15.040Z,40.95
2022-12-07T12:35:43.625Z,30.75
2022-12-07T12:38:49.894Z,20.40
2022-12-07T12:41:51.121Z,62.97
2022-12-07T12:44:21.986Z,31.67
2022-12-07T12:46:53.159Z,31.00
2022-12-07T12:49:24.325Z,28.50
2022-12-07T12:52:00.210Z,40.67
2022-12-07T12:54:32.934Z,13.27
2022-12-07T12:57:02.150Z,20.15
2022-12-07T12:59:33.220Z,26.65
2022-12-07T13:02:07.075Z,32.28
2022-12-07T13:04:51.017Z,30.65
2022-12-07T13:07:43.422Z,49.15
2022-12-07T13:10:36.423Z,39.60
2022-12-07T13:13:16.461Z,41.58
2022-12-07T13:15:45.961Z,35.60
2022-12-07T13:18:23.780Z,48.10
2022-12-07T13:21:16.050Z,33.53
2022-12-07T13:23:55.852Z,22.60
2022-12-07T13:26:33.549Z,20.30
2022-12-07T13:29:28.595Z,24.65
2022-12-07T13:34:35.454Z,25.70
2022-12-07T13:37:38.442Z,37.05
2022-12-07T13:40:25.243Z,27.58
2022-12-07T13:43:17.154Z,30.40
2022-12-07T13:45:51.761Z,14.77
2022-12-07T13:48:50.726Z,32.20
2022-12-07T13:51:24.964Z,31.23
2022-12-07T13:54:00.440Z,31.42
2022-12-07T13:56:38.389Z,29.45
2022-12-07T13:59:08.493Z,25.02
2022-12-07T14:01:36.391Z,19.90
2022-12-07T14:04:40.043Z,18.38
2022-12-07T14:07:40.269Z,12.57
2022-12-07T14:10:14.414Z,15.77
2022-12-07T14:12:44.964Z,26.55
2022-12-07T14:15:43.366Z,16.00
2022-12-07T14:18:31.786Z,16.90
2022-12-07T14:21:18.783Z,29.13
2022-12-07T14:24:09.548Z,22.83
2022-12-07T14:26:37.636Z,40.15
2022-12-07T14:29:44.748Z,20.90
2022-12-07T14:32:32.062Z,25.67
2022-12-07T14:35:22.331Z,20.15
2022-12-07T14:37:50.770Z,24.67
2022-12-07T14:40:29.199Z,30.70
2022-12-07T14:42:59.023Z,26.25
2022-12-07T14:45:27.580Z,14.82
2022-12-07T14:53:38.927Z,23.75
2022-12-07T14:56:16.687Z,25.95
2022-12-07T14:58:44.732Z,24.70
2022-12-07T15:01:13.341Z,29.13
2022-12-07T15:03:41.449Z,22.20
2022-12-07T15:06:16.449Z,19.33
2022-12-07T15:08:49.940Z,19.48
2022-12-07T15:11:19.686Z,33.40
2022-12-07T15:14:07.012Z,40.92
2022-12-07T15:16:59.660Z,27.95
2022-12-07T15:19:29.182Z,30.90
2022-12-07T15:21:58.337Z,25.40
2022-12-07T15:24:28.852Z,16.08
2022-12-07T15:26:56.964Z,19.73
2022-12-07T15:29:25.326Z,13.93
2022-12-07T15:31:56.335Z,17.30
2022-12-07T15:34:26.865Z,29.08
2022-12-07T15:36:56.084Z,15.55
2022-12-07T15:39:24.004Z,19.73
2022-12-07T15:41:51.920Z,15.50
2022-12-07T15:44:39.373Z,15.90
2022-12-07T15:47:07.523Z,22.80
2022-12-07T15:49:35.387Z,20.65
2022-12-07T15:52:03.286Z,17.45
2022-12-07T15:54:31.515Z,26.52
2022-12-07T15:56:59.211Z,20.27
2022-12-07T15:59:34.275Z,27.15
2022-12-07T16:02:03.398Z,25.02
2022-12-07T16:04:32.221Z,26.10
2022-12-07T16:07:00.890Z,62.70
2022-12-07T16:09:29.202Z,16.58
2022-12-07T16:11:59.241Z,12.45
2022-12-07T16:14:27.301Z,16.40
2022-12-07T16:16:55.172Z,8.55
2022-12-07T16:19:23.118Z,10.77
2022-12-07T16:21:53.415Z,7.95
2022-12-07T16:24:21.204Z,7.90
2022-12-07T16:26:50.432Z,20.52
2022-12-07T16:29:19.031Z,13.40
2022-12-07T16:31:47.697Z,18.75
2022-12-07T16:34:15.560Z,6.07
2022-12-07T16:39:31.615Z,13.98
2022-12-07T16:41:59.583Z,18.63
2022-12-07T16:44:27.495Z,9.05
2022-12-07T16:46:55.659Z,7.85
2022-12-07T16:49:25.228Z,5.90
2022-12-07T16:52:15.026Z,6.90
2022-12-07T16:54:41.206Z,7.32
2022-12-07T16:57:09.031Z,7.78
2022-12-07T16:59:37.169Z,10.15
2022-12-07T17:02:04.895Z,7.97
2022-12-07T17:04:32.802Z,13.25
2022-12-07T17:07:00.711Z,9.32
2022-12-07T17:09:31.599Z,6.28
2022-12-07T17:11:59.651Z,5.65
2022-12-07T17:14:46.071Z,34.17
2022-12-07T17:17:13.772Z,37.67
2022-12-07T17:19:42.040Z,9.68
2022-12-07T17:22:13.277Z,4.75
2022-12-07T17:24:41.697Z,11.90
2022-12-07T17:27:10.280Z,5.10
2022-12-07T17:29:39.573Z,8.82
2022-12-07T17:32:08.630Z,4.40
2022-12-07T17:34:37.967Z,5.80
2022-12-07T17:37:07.185Z,2.40
2022-12-07T17:39:36.302Z,8.02
2022-12-07T17:42:22.703Z,4.95
2022-12-07T17:44:50.486Z,8.05
2022-12-07T17:47:19.123Z,5.28
2022-12-07T17:49:47.270Z,21.13
2022-12-07T17:52:33.650Z,47.00
2022-12-07T17:55:01.847Z,60.35
2022-12-07T17:57:29.908Z,68.43
2022-12-07T18:00:01.367Z,11.15
2022-12-07T18:02:29.927Z,8.88
2022-12-07T18:04:57.782Z,3.97
2022-12-07T18:07:25.465Z,4.25
2022-12-07T18:09:53.313Z,8.65
2022-12-07T18:12:21.083Z,5.78
2022-12-07T18:14:50.472Z,4.72
2022-12-07T18:17:18.914Z,3.63
2022-12-07T18:19:46.549Z,6.10
2022-12-07T18:22:14.856Z,2.40
2022-12-07T18:24:43.380Z,9.85
2022-12-07T18:27:11.151Z,5.80
2022-12-07T18:29:38.975Z,9.13
2022-12-07T18:32:06.859Z,5.68
2022-12-07T18:34:34.626Z,6.43
2022-12-07T18:37:02.319Z,7.88
2022-12-07T18:39:33.680Z,4.40
2022-12-07T18:42:02.876Z,5.47
2022-12-07T18:44:30.593Z,4.10
2022-12-07T18:46:58.564Z,4.35
2022-12-07T18:49:26.379Z,3.05
2022-12-07T18:51:54.334Z,8.32
2022-12-07T18:54:22.721Z,4.15
2022-12-07T18:56:50.776Z,5.20
2022-12-07T18:59:37.188Z,2.97
2022-12-07T19:02:05.215Z,6.40
2022-12-07T19:04:33.100Z,3.33
2022-12-07T19:07:01.379Z,4.03
2022-12-07T19:09:29.794Z,4.32
2022-12-07T19:12:01.259Z,4.18
2022-12-07T19:14:34.887Z,3.78
2022-12-07T19:17:06.134Z,2.58
2022-12-07T19:19:40.694Z,2.47
2022-12-07T19:22:09.645Z,3.55
2022-12-07T19:24:38.180Z,3.92
2022-12-07T19:27:07.505Z,5.07
2022-12-07T19:29:35.692Z,2.50
2022-12-07T19:32:09.443Z,5.13
2022-12-07T19:34:41.173Z,3.00
2022-12-07T19:37:09.673Z,5.80
2022-12-07T19:39:37.535Z,25.17
2022-12-07T19:42:05.569Z,5.18
2022-12-07T19:44:34.216Z,4.80
2022-12-07T19:47:05.226Z,8.05
2022-12-07T19:49:36.854Z,7.10
2022-12-07T19:52:06.181Z,23.60
2022-12-07T19:54:34.190Z,5.30
2022-12-07T19:57:02.003Z,6.43
2022-12-07T19:59:30.656Z,35.20
2022-12-07T20:01:59.904Z,41.13
2022-12-07T20:04:30.698Z,53.25
2022-12-07T20:07:00.633Z,37.85
2022-12-07T20:09:28.780Z,31.45
2022-12-07T20:12:15.209Z,27.73
2022-12-07T20:14:43.233Z,41.58
2022-12-07T20:17:11.079Z,51.03
2022-12-07T20:19:39.421Z,44.28
2022-12-07T20:22:07.584Z,3.33
2022-12-07T20:24:36.491Z,2.75
2022-12-07T20:27:04.786Z,3.30
2022-12-07T20:29:32.910Z,4.72
2022-12-07T20:32:00.940Z,3.10
2022-12-07T20:34:28.748Z,4.45
2022-12-07T20:36:56.863Z,3.22
2022-12-07T20:39:24.634Z,3.28
2022-12-07T20:42:10.792Z,2.25
2022-12-07T20:44:38.469Z,3.17
2022-12-07T20:47:07.116Z,3.05
2022-12-07T20:49:34.829Z,5.22
2022-12-07T20:52:02.757Z,5.68
2022-12-07T20:54:30.507Z,4.03
2022-12-07T20:56:58.399Z,4.93
2022-12-07T20:59:26.531Z,10.30
2022-12-07T21:01:54.458Z,13.90
2022-12-07T21:04:22.526Z,3.97
2022-12-07T21:06:50.311Z,2.55
2022-12-07T21:09:18.152Z,2.22
2022-12-07T21:11:45.973Z,3.53
2022-12-07T21:14:13.694Z,2.13
2022-12-07T21:16:41.452Z,2.20
2022-12-07T21:19:09.431Z,3.42
2022-12-07T21:21:36.980Z,3.58
2022-12-07T21:24:06.051Z,2.33
2022-12-07T21:26:35.904Z,5.47
2022-12-07T21:29:04.789Z,3.03
2022-12-07T21:31:32.919Z,3.17
2022-12-07T21:34:02.883Z,2.25
2022-12-07T21:36:30.651Z,2.45
2022-12-07T21:38:58.475Z,2.42
2022-12-07T21:41:28.371Z,2.70
2022-12-07T21:43:56.217Z,4.93
2022-12-07T21:46:31.251Z,1.98
2022-12-07T21:49:03.673Z,3.08
2022-12-07T21:51:31.376Z,3.75
2022-12-07T21:54:00.263Z,4.88
2022-12-07T21:56:35.649Z,3.58
2022-12-07T21:59:04.876Z,4.45
2022-12-07T22:01:37.847Z,4.88
2022-12-07T22:04:09.813Z,3.58
2022-12-07T22:06:37.901Z,3.17
2022-12-07T22:09:06.115Z,2.13
2022-12-07T22:11:34.106Z,3.05
2022-12-07T22:14:20.200Z,3.15
2022-12-07T22:16:47.896Z,3.00
2022-12-07T22:19:15.772Z,3.85
2022-12-07T22:21:43.655Z,4.00
2022-12-07T22:24:14.041Z,2.90
2022-12-07T22:26:42.217Z,2.92
2022-12-07T22:29:10.092Z,2.97
2022-12-07T22:31:38.534Z,2.60
2022-12-07T22:34:06.366Z,2.92
2022-12-07T22:36:34.125Z,2.95
2022-12-07T22:39:01.821Z,2.42
2022-12-07T22:41:30.687Z,3.33
2022-12-07T22:43:58.853Z,3.08
2022-12-07T22:46:27.045Z,3.13
2022-12-07T22:48:54.921Z,3.72
2022-12-07T22:51:31.619Z,3.10
2022-12-07T22:54:00.085Z,2.95
2022-12-07T22:56:28.105Z,2.88
2022-12-07T22:58:55.978Z,4.28
2022-12-07T23:01:24.088Z,1.75
2022-12-07T23:03:52.246Z,3.63
2022-12-07T23:06:21.891Z,3.05
2022-12-07T23:08:49.696Z,2.85
2022-12-07T23:11:38.691Z,2.85
2022-12-07T23:14:15.009Z,4.90
2022-12-07T23:16:43.041Z,3.22
2022-12-07T23:19:10.907Z,4.05
2022-12-07T23:21:38.631Z,3.53
2022-12-07T23:24:07.153Z,3.13
2022-12-07T23:26:35.360Z,4.18
2022-12-07T23:29:03.065Z,3.22
2022-12-07T23:31:30.771Z,3.95
2022-12-07T23:33:58.544Z,3.60
2022-12-07T23:36:27.535Z,5.10
2022-12-07T23:38:57.672Z,2.05
2022-12-07T23:41:31.600Z,3.33
2022-12-07T23:44:00.018Z,2.75
2022-12-07T23:46:29.427Z,4.72
2022-12-07T23:48:58.638Z,4.60
2022-12-07T23:51:26.501Z,2.70
2022-12-07T23:53:54.727Z,1.88
2022-12-07T23:56:29.752Z,1.90
2022-12-07T23:58:57.680Z,4.43
